sensor_id;sensor_type;location;lat;lon;timestamp;pressure;altitude;pressure_sealevel;temperature;humidity
15272;BME280;7737;51.578;7.268;2023-11-18T00:00:25;102002.81;;;1.85;100.00
15272;BME280;7737;51.578;7.268;2023-11-18T00:02:52;102008.94;;;1.82;100.00
15272;BME280;7737;51.578;7.268;2023-11-18T00:05:19;102003.56;;;1.67;100.00
15272;BME280;7737;51.578;7.268;2023-11-18T00:07:47;102002.66;;;1.61;100.00
15272;BME280;7737;51.578;7.268;2023-11-18T00:10:13;102007.09;;;1.69;100.00
15272;BME280;7737;51.578;7.268;2023-11-18T00:12:39;102007.09;;;1.72;100.00
15272;BME280;7737;51.578;7.268;2023-11-18T00:15:07;102006.16;;;1.64;100.00
15272;BME280;7737;51.578;7.268;2023-11-18T00:17:36;102000.91;;;1.64;100.00
15272;BME280;7737;51.578;7.268;2023-11-18T00:20:04;102003.50;;;1.60;100.00
15272;BME280;7737;51.578;7.268;2023-11-18T00:22:34;102003.38;;;1.46;100.00
15272;BME280;7737;51.578;7.268;2023-11-18T00:25:02;102003.53;;;1.61;100.00
15272;BME280;7737;51.578;7.268;2023-11-18T00:27:32;102003.56;;;1.66;100.00
15272;BME280;7737;51.578;7.268;2023-11-18T00:30:01;102004.47;;;1.71;100.00
15272;BME280;7737;51.578;7.268;2023-11-18T00:32:30;102003.56;;;1.67;100.00
15272;BME280;7737;51.578;7.268;2023-11-18T00:34:57;102003.47;;;1.55;100.00
15272;BME280;7737;51.578;7.268;2023-11-18T00:37:23;102005.78;;;1.22;100.00
15272;BME280;7737;51.578;7.268;2023-11-18T00:39:50;102000.81;;;1.54;100.00
15272;BME280;7737;51.578;7.268;2023-11-18T00:42:18;101997.34;;;1.55;100.00
15272;BME280;7737;51.578;7.268;2023-11-18T00:44:44;101991.22;;;1.53;100.00
15272;BME280;7737;51.578;7.268;2023-11-18T00:47:11;101984.25;;;1.56;100.00
15272;BME280;7737;51.578;7.268;2023-11-18T00:49:37;101984.16;;;1.44;100.00
15272;BME280;7737;51.578;7.268;2023-11-18T00:52:05;101986.00;;;1.57;100.00
15272;BME280;7737;51.578;7.268;2023-11-18T00:54:32;101980.59;;;1.36;100.00
15272;BME280;7737;51.578;7.268;2023-11-18T00:56:58;101976.22;;;1.34;100.00
15272;BME280;7737;51.578;7.268;2023-11-18T00:59:26;101968.53;;;1.53;100.00
15272;BME280;7737;51.578;7.268;2023-11-18T01:01:53;101965.84;;;1.49;100.00
15272;BME280;7737;51.578;7.268;2023-11-18T01:04:19;101970.00;;;1.22;100.00
15272;BME280;7737;51.578;7.268;2023-11-18T01:06:46;101967.38;;;1.16;100.00
15272;BME280;7737;51.578;7.268;2023-11-18T01:09:13;101966.53;;;1.25;100.00
15272;BME280;7737;51.578;7.268;2023-11-18T01:11:41;101968.38;;;1.34;100.00
15272;BME280;7737;51.578;7.268;2023-11-18T01:14:08;101974.44;;;1.27;100.00
15272;BME280;7737;51.578;7.268;2023-11-18T01:16:35;101974.56;;;1.45;100.00
15272;BME280;7737;51.578;7.268;2023-11-18T01:19:02;101969.22;;;1.31;100.00
15272;BME280;7737;51.578;7.268;2023-11-18T01:21:29;101972.69;;;1.30;100.00
15272;BME280;7737;51.578;7.268;2023-11-18T01:23:55;101968.41;;;1.41;100.00
15272;BME280;7737;51.578;7.268;2023-11-18T01:26:22;101983.31;;;1.45;100.00
15272;BME280;7737;51.578;7.268;2023-11-18T01:28:48;101994.59;;;1.38;100.00
15272;BME280;7737;51.578;7.268;2023-11-18T01:31:15;102001.63;;;1.44;100.00
15272;BME280;7737;51.578;7.268;2023-11-18T01:33:44;102006.94;;;1.48;100.00
15272;BME280;7737;51.578;7.268;2023-11-18T01:36:12;102014.00;;;1.61;100.00
15272;BME280;7737;51.578;7.268;2023-11-18T01:38:38;102010.47;;;1.59;100.00
15272;BME280;7737;51.578;7.268;2023-11-18T01:41:05;102014.00;;;1.58;100.00
15272;BME280;7737;51.578;7.268;2023-11-18T01:43:31;102008.78;;;1.61;100.00
15272;BME280;7737;51.578;7.268;2023-11-18T01:45:58;102011.38;;;1.58;100.00
15272;BME280;7737;51.578;7.268;2023-11-18T01:48:27;102007.84;;;1.56;100.00
15272;BME280;7737;51.578;7.268;2023-11-18T01:50:57;102008.75;;;1.58;100.00
15272;BME280;7737;51.578;7.268;2023-11-18T01:53:24;101994.81;;;1.65;100.00
15272;BME280;7737;51.578;7.268;2023-11-18T01:55:51;102001.75;;;1.57;100.00
15272;BME280;7737;51.578;7.268;2023-11-18T01:58:18;102009.63;;;1.62;100.00
15272;BME280;7737;51.578;7.268;2023-11-18T02:00:45;102001.78;;;1.59;100.00
15272;BME280;7737;51.578;7.268;2023-11-18T02:03:13;102002.53;;;1.47;100.00
15272;BME280;7737;51.578;7.268;2023-11-18T02:05:39;102005.97;;;1.42;100.00
15272;BME280;7737;51.578;7.268;2023-11-18T02:08:09;102005.09;;;1.41;100.00
15272;BME280;7737;51.578;7.268;2023-11-18T02:10:45;102000.81;;;1.48;100.00
15272;BME280;7737;51.578;7.268;2023-11-18T02:13:21;101998.25;;;1.60;100.00
15272;BME280;7737;51.578;7.268;2023-11-18T02:15:52;101997.34;;;1.55;100.00
15272;BME280;7737;51.578;7.268;2023-11-18T02:18:19;101993.94;;;1.65;100.00
15272;BME280;7737;51.578;7.268;2023-11-18T02:20:47;101986.78;;;1.43;100.00
15272;BME280;7737;51.578;7.268;2023-11-18T02:23:15;101982.31;;;1.31;100.00
15272;BME280;7737;51.578;7.268;2023-11-18T02:25:44;101979.84;;;1.49;100.00
15272;BME280;7737;51.578;7.268;2023-11-18T02:28:11;101978.94;;;1.44;100.00
15272;BME280;7737;51.578;7.268;2023-11-18T02:30:39;101974.56;;;1.46;100.00
15272;BME280;7737;51.578;7.268;2023-11-18T02:33:11;101973.63;;;1.38;100.00
15272;BME280;7737;51.578;7.268;2023-11-18T02:35:45;101977.25;;;1.52;100.00
15272;BME280;7737;51.578;7.268;2023-11-18T02:38:16;101972.03;;;1.55;100.00
15272;BME280;7737;51.578;7.268;2023-11-18T02:40:46;101971.91;;;1.43;100.00
15272;BME280;7737;51.578;7.268;2023-11-18T02:43:14;101974.56;;;1.46;100.00
15272;BME280;7737;51.578;7.268;2023-11-18T02:45:42;101975.47;;;1.45;100.00
15272;BME280;7737;51.578;7.268;2023-11-18T02:48:10;101977.31;;;1.58;100.00
15272;BME280;7737;51.578;7.268;2023-11-18T02:50:36;101975.63;;;1.69;100.00
15272;BME280;7737;51.578;7.268;2023-11-18T02:53:03;101976.53;;;1.74;100.00
15272;BME280;7737;51.578;7.268;2023-11-18T02:55:30;101972.09;;;1.67;100.00
15272;BME280;7737;51.578;7.268;2023-11-18T02:57:58;101972.16;;;1.73;100.00
15272;BME280;7737;51.578;7.268;2023-11-18T03:00:23;101986.13;;;1.75;100.00
15272;BME280;7737;51.578;7.268;2023-11-18T03:02:51;101985.28;;;1.78;100.00
15272;BME280;7737;51.578;7.268;2023-11-18T03:05:17;101987.88;;;1.73;100.00
15272;BME280;7737;51.578;7.268;2023-11-18T03:07:45;101981.88;;;1.90;100.00
15272;BME280;7737;51.578;7.268;2023-11-18T03:10:14;101983.44;;;1.63;100.00
15272;BME280;7737;51.578;7.268;2023-11-18T03:12:46;101971.13;;;1.52;100.00
15272;BME280;7737;51.578;7.268;2023-11-18T03:15:14;101966.88;;;1.67;100.00
15272;BME280;7737;51.578;7.268;2023-11-18T03:17:43;101957.38;;;1.86;100.00
15272;BME280;7737;51.578;7.268;2023-11-18T03:20:11;101957.41;;;1.88;100.00
15272;BME280;7737;51.578;7.268;2023-11-18T03:22:39;101951.03;;;1.52;100.00
15272;BME280;7737;51.578;7.268;2023-11-18T03:25:07;101943.31;;;1.70;100.00
15272;BME280;7737;51.578;7.268;2023-11-18T03:27:34;101939.84;;;1.77;100.00
15272;BME280;7737;51.578;7.268;2023-11-18T03:30:01;101938.09;;;1.73;100.00
15272;BME280;7737;51.578;7.268;2023-11-18T03:32:29;101933.69;;;1.72;100.00
15272;BME280;7737;51.578;7.268;2023-11-18T03:34:56;101934.59;;;1.71;100.00
15272;BME280;7737;51.578;7.268;2023-11-18T03:37:24;101937.28;;;1.87;100.00
15272;BME280;7737;51.578;7.268;2023-11-18T03:39:51;101932.94;;;1.92;100.00
15272;BME280;7737;51.578;7.268;2023-11-18T03:42:18;101935.53;;;1.89;100.00
15272;BME280;7737;51.578;7.268;2023-11-18T03:44:44;101930.25;;;1.79;100.00
15272;BME280;7737;51.578;7.268;2023-11-18T03:47:12;101934.56;;;1.68;100.00
15272;BME280;7737;51.578;7.268;2023-11-18T03:49:40;101932.88;;;1.79;100.00
15272;BME280;7737;51.578;7.268;2023-11-18T03:52:07;101939.97;;;1.97;100.00
15272;BME280;7737;51.578;7.268;2023-11-18T03:54:33;101938.19;;;1.96;100.00
15272;BME280;7737;51.578;7.268;2023-11-18T03:57:00;101944.38;;;2.03;100.00
15272;BME280;7737;51.578;7.268;2023-11-18T03:59:27;101940.03;;;2.11;100.00
15272;BME280;7737;51.578;7.268;2023-11-18T04:01:53;101944.38;;;2.03;100.00
15272;BME280;7737;51.578;7.268;2023-11-18T04:04:20;101953.09;;;2.02;100.00
15272;BME280;7737;51.578;7.268;2023-11-18T04:06:47;101943.53;;;2.13;100.00
15272;BME280;7737;51.578;7.268;2023-11-18T04:09:14;101942.69;;;2.17;100.00
15272;BME280;7737;51.578;7.268;2023-11-18T04:11:41;101956.63;;;2.13;100.00
15272;BME280;7737;51.578;7.268;2023-11-18T04:14:10;101948.75;;;2.04;100.00
15272;BME280;7737;51.578;7.268;2023-11-18T04:16:36;101949.66;;;2.09;100.00
15272;BME280;7737;51.578;7.268;2023-11-18T04:19:04;101946.09;;;2.01;100.00
15272;BME280;7737;51.578;7.268;2023-11-18T04:21:31;101942.56;;;1.93;100.00
15272;BME280;7737;51.578;7.268;2023-11-18T04:23:59;101940.88;;;2.10;100.00
15272;BME280;7737;51.578;7.268;2023-11-18T04:26:26;101942.63;;;2.08;100.00
15272;BME280;7737;51.578;7.268;2023-11-18T04:28:52;101947.88;;;2.08;100.00
15272;BME280;7737;51.578;7.268;2023-11-18T04:31:19;101933.06;;;2.14;100.00
15272;BME280;7737;51.578;7.268;2023-11-18T04:33:46;101926.94;;;2.14;100.00
15272;BME280;7737;51.578;7.268;2023-11-18T04:36:13;101924.25;;;2.02;100.00
15272;BME280;7737;51.578;7.268;2023-11-18T04:38:41;101922.53;;;2.04;100.00
15272;BME280;7737;51.578;7.268;2023-11-18T04:41:10;101920.78;;;2.09;100.00
15272;BME280;7737;51.578;7.268;2023-11-18T04:43:36;101921.63;;;2.02;100.00
15272;BME280;7737;51.578;7.268;2023-11-18T04:46:04;101919.91;;;2.04;100.00
15272;BME280;7737;51.578;7.268;2023-11-18T04:48:30;101898.88;;;1.95;100.00
15272;BME280;7737;51.578;7.268;2023-11-18T04:50:58;101890.94;;;1.85;100.00
15272;BME280;7737;51.578;7.268;2023-11-18T04:53:25;101881.41;;;2.00;100.00
15272;BME280;7737;51.578;7.268;2023-11-18T04:55:51;101887.50;;;1.99;100.00
15272;BME280;7737;51.578;7.268;2023-11-18T04:58:20;101888.34;;;1.87;100.00
15272;BME280;7737;51.578;7.268;2023-11-18T05:00:47;101891.88;;;1.91;100.00
15272;BME280;7737;51.578;7.268;2023-11-18T05:03:13;101893.59;;;1.92;100.00
15272;BME280;7737;51.578;7.268;2023-11-18T05:05:40;101888.38;;;1.96;100.00
15272;BME280;7737;51.578;7.268;2023-11-18T05:08:07;101879.66;;;1.97;100.00
15272;BME280;7737;51.578;7.268;2023-11-18T05:10:34;101871.81;;;2.00;100.00
15272;BME280;7737;51.578;7.268;2023-11-18T05:13:01;101870.94;;;2.03;100.00
15272;BME280;7737;51.578;7.268;2023-11-18T05:15:29;101870.94;;;2.03;100.00
15272;BME280;7737;51.578;7.268;2023-11-18T05:17:56;101869.16;;;1.93;100.00
15272;BME280;7737;51.578;7.268;2023-11-18T05:20:23;101856.03;;;1.90;100.00
15272;BME280;7737;51.578;7.268;2023-11-18T05:22:50;101854.28;;;1.92;100.00
15272;BME280;7737;51.578;7.268;2023-11-18T05:25:16;101843.81;;;1.99;100.00
15272;BME280;7737;51.578;7.268;2023-11-18T05:27:43;101841.22;;;2.10;100.00
15272;BME280;7737;51.578;7.268;2023-11-18T05:30:10;101841.22;;;2.01;100.00
15272;BME280;7737;51.578;7.268;2023-11-18T05:32:38;101828.97;;;2.00;100.00
15272;BME280;7737;51.578;7.268;2023-11-18T05:35:06;101831.63;;;2.01;100.00
15272;BME280;7737;51.578;7.268;2023-11-18T05:37:36;101829.88;;;2.12;100.00
15272;BME280;7737;51.578;7.268;2023-11-18T05:40:04;101828.09;;;2.07;100.00
15272;BME280;7737;51.578;7.268;2023-11-18T05:42:32;101843.00;;;2.14;100.00
15272;BME280;7737;51.578;7.268;2023-11-18T05:45:01;101844.69;;;1.97;100.00
15272;BME280;7737;51.578;7.268;2023-11-18T05:47:27;101846.44;;;1.99;100.00
15272;BME280;7737;51.578;7.268;2023-11-18T05:49:55;101843.00;;;2.11;100.00
15272;BME280;7737;51.578;7.268;2023-11-18T05:52:22;101850.00;;;2.15;100.00
15272;BME280;7737;51.578;7.268;2023-11-18T05:54:49;101850.84;;;2.08;100.00
15272;BME280;7737;51.578;7.268;2023-11-18T05:57:15;101856.97;;;2.04;100.00
15272;BME280;7737;51.578;7.268;2023-11-18T05:59:42;101854.34;;;2.17;100.00
15272;BME280;7737;51.578;7.268;2023-11-18T06:02:09;101856.13;;;2.20;100.00
15272;BME280;7737;51.578;7.268;2023-11-18T06:04:38;101849.13;;;2.17;100.00
15272;BME280;7737;51.578;7.268;2023-11-18T06:07:06;101853.50;;;2.11;100.00
15272;BME280;7737;51.578;7.268;2023-11-18T06:09:33;101835.16;;;2.29;100.00
15272;BME280;7737;51.578;7.268;2023-11-18T06:12:00;101829.00;;;2.18;100.00
15272;BME280;7737;51.578;7.268;2023-11-18T06:14:27;101833.41;;;2.23;100.00
15272;BME280;7737;51.578;7.268;2023-11-18T06:16:54;101835.16;;;2.21;100.00
15272;BME280;7737;51.578;7.268;2023-11-18T06:19:20;101835.16;;;2.26;100.00
15272;BME280;7737;51.578;7.268;2023-11-18T06:21:47;101828.13;;;2.13;100.00
15272;BME280;7737;51.578;7.268;2023-11-18T06:24:16;101835.16;;;2.29;100.00
15272;BME280;7737;51.578;7.268;2023-11-18T06:26:44;101822.94;;;2.29;100.00
15272;BME280;7737;51.578;7.268;2023-11-18T06:29:12;101816.81;;;2.24;100.00
15272;BME280;7737;51.578;7.268;2023-11-18T06:31:39;101813.31;;;2.37;100.00
15272;BME280;7737;51.578;7.268;2023-11-18T06:34:06;101811.53;;;2.26;100.00
15272;BME280;7737;51.578;7.268;2023-11-18T06:36:32;101804.59;;;2.40;100.00
15272;BME280;7737;51.578;7.268;2023-11-18T06:38:59;101808.94;;;2.27;100.00
15272;BME280;7737;51.578;7.268;2023-11-18T06:41:27;101822.06;;;2.29;100.00
15272;BME280;7737;51.578;7.268;2023-11-18T06:43:59;101820.31;;;2.37;100.00
15272;BME280;7737;51.578;7.268;2023-11-18T06:46:34;101804.59;;;2.43;100.00
15272;BME280;7737;51.578;7.268;2023-11-18T06:49:03;101815.97;;;2.48;100.00
15272;BME280;7737;51.578;7.268;2023-11-18T06:51:33;101817.72;;;2.55;100.00
15272;BME280;7737;51.578;7.268;2023-11-18T06:54:00;101808.97;;;2.58;100.00
15272;BME280;7737;51.578;7.268;2023-11-18T06:56:30;101805.47;;;2.57;100.00
15272;BME280;7737;51.578;7.268;2023-11-18T06:58:57;101806.34;;;2.62;100.00
15272;BME280;7737;51.578;7.268;2023-11-18T07:01:23;101808.09;;;2.51;100.00
15272;BME280;7737;51.578;7.268;2023-11-18T07:03:50;101805.47;;;2.62;100.00
15272;BME280;7737;51.578;7.268;2023-11-18T07:06:19;101807.22;;;2.47;100.00
15272;BME280;7737;51.578;7.268;2023-11-18T07:08:47;101808.97;;;2.56;100.00
15272;BME280;7737;51.578;7.268;2023-11-18T07:11:14;101810.72;;;2.57;100.00
15272;BME280;7737;51.578;7.268;2023-11-18T07:13:43;101818.59;;;2.59;100.00
15272;BME280;7737;51.578;7.268;2023-11-18T07:16:09;101827.31;;;2.52;100.00
15272;BME280;7737;51.578;7.268;2023-11-18T07:18:37;101819.44;;;2.55;100.00
15272;BME280;7737;51.578;7.268;2023-11-18T07:21:05;101817.72;;;2.63;100.00
15272;BME280;7737;51.578;7.268;2023-11-18T07:23:32;101828.25;;;2.67;100.00
15272;BME280;7737;51.578;7.268;2023-11-18T07:25:59;101832.63;;;2.80;100.00
15272;BME280;7737;51.578;7.268;2023-11-18T07:28:25;101825.59;;;2.84;100.00
15272;BME280;7737;51.578;7.268;2023-11-18T07:30:53;101822.09;;;2.83;100.00
15272;BME280;7737;51.578;7.268;2023-11-18T07:33:20;101826.47;;;2.81;100.00
15272;BME280;7737;51.578;7.268;2023-11-18T07:35:48;101838.72;;;2.87;100.00
15272;BME280;7737;51.578;7.268;2023-11-18T07:38:15;101840.50;;;2.91;100.00
15272;BME280;7737;51.578;7.268;2023-11-18T07:40:43;101834.34;;;2.81;100.00
15272;BME280;7737;51.578;7.268;2023-11-18T07:43:11;101834.34;;;2.93;100.00
15272;BME280;7737;51.578;7.268;2023-11-18T07:45:38;101824.72;;;3.12;100.00
15272;BME280;7737;51.578;7.268;2023-11-18T07:48:07;101805.44;;;3.13;100.00
15272;BME280;7737;51.578;7.268;2023-11-18T07:50:34;101808.94;;;3.20;100.00
15272;BME280;7737;51.578;7.268;2023-11-18T07:53:01;101805.38;;;3.31;100.00
15272;BME280;7737;51.578;7.268;2023-11-18T07:55:28;101801.88;;;3.41;100.00
15272;BME280;7737;51.578;7.268;2023-11-18T07:57:55;101802.69;;;3.57;100.00
15272;BME280;7737;51.578;7.268;2023-11-18T08:00:22;101795.63;;;3.68;100.00
15272;BME280;7737;51.578;7.268;2023-11-18T08:02:49;101783.28;;;3.88;100.00
15272;BME280;7737;51.578;7.268;2023-11-18T08:05:18;101787.44;;;4.22;100.00
15272;BME280;7737;51.578;7.268;2023-11-18T08:07:45;101784.88;;;4.10;100.00
15272;BME280;7737;51.578;7.268;2023-11-18T08:10:12;101783.75;;;4.49;100.00
15272;BME280;7737;51.578;7.268;2023-11-18T08:12:44;101788.13;;;4.49;100.00
15272;BME280;7737;51.578;7.268;2023-11-18T08:15:11;101796.84;;;4.60;100.00
15272;BME280;7737;51.578;7.268;2023-11-18T08:17:37;101805.56;;;4.68;100.00
15272;BME280;7737;51.578;7.268;2023-11-18T08:20:05;101808.13;;;4.75;100.00
15272;BME280;7737;51.578;7.268;2023-11-18T08:22:40;101815.00;;;4.90;100.00
15272;BME280;7737;51.578;7.268;2023-11-18T08:25:09;101807.84;;;5.04;100.00
15272;BME280;7737;51.578;7.268;2023-11-18T08:27:38;101808.72;;;5.03;100.00
15272;BME280;7737;51.578;7.268;2023-11-18T08:30:06;101808.72;;;5.03;100.00
15272;BME280;7737;51.578;7.268;2023-11-18T08:32:36;101807.66;;;5.22;100.00
15272;BME280;7737;51.578;7.268;2023-11-18T08:35:03;101800.75;;;5.12;100.00
15272;BME280;7737;51.578;7.268;2023-11-18T08:37:31;101800.59;;;5.24;100.00
15272;BME280;7737;51.578;7.268;2023-11-18T08:39:59;101801.50;;;5.25;100.00
15272;BME280;7737;51.578;7.268;2023-11-18T08:42:26;101810.19;;;5.34;100.00
15272;BME280;7737;51.578;7.268;2023-11-18T08:44:53;101800.47;;;5.39;100.00
15272;BME280;7737;51.578;7.268;2023-11-18T08:47:20;101787.19;;;5.45;100.00
15272;BME280;7737;51.578;7.268;2023-11-18T08:49:47;101787.19;;;5.47;100.00
15272;BME280;7737;51.578;7.268;2023-11-18T08:52:15;101785.44;;;5.47;100.00
15272;BME280;7737;51.578;7.268;2023-11-18T08:54:43;101781.75;;;5.61;100.00
15272;BME280;7737;51.578;7.268;2023-11-18T08:57:32;101791.50;;;5.54;100.00
15272;BME280;7737;51.578;7.268;2023-11-18T09:00:14;101785.19;;;5.69;100.00
15272;BME280;7737;51.578;7.268;2023-11-18T09:03:02;101777.38;;;5.60;100.00
15272;BME280;7737;51.578;7.268;2023-11-18T09:05:31;101777.25;;;5.70;100.00
15272;BME280;7737;51.578;7.268;2023-11-18T09:07:57;101772.84;;;5.71;100.00
15272;BME280;7737;51.578;7.268;2023-11-18T09:10:26;101767.50;;;5.77;100.00
15272;BME280;7737;51.578;7.268;2023-11-18T09:12:55;101766.56;;;5.79;100.00
15272;BME280;7737;51.578;7.268;2023-11-18T09:15:22;101763.94;;;5.78;100.00
15272;BME280;7737;51.578;7.268;2023-11-18T09:17:49;101763.78;;;5.93;100.00
15272;BME280;7737;51.578;7.268;2023-11-18T09:20:16;101759.44;;;5.90;100.00
15272;BME280;7737;51.578;7.268;2023-11-18T09:22:47;101748.91;;;5.87;100.00
15272;BME280;7737;51.578;7.268;2023-11-18T09:25:14;101743.38;;;6.04;100.00
15272;BME280;7737;51.578;7.268;2023-11-18T09:27:41;101740.81;;;6.01;100.00
15272;BME280;7737;51.578;7.268;2023-11-18T09:30:10;101742.50;;;6.05;100.00
15272;BME280;7737;51.578;7.268;2023-11-18T09:32:39;101739.78;;;6.09;100.00
15272;BME280;7737;51.578;7.268;2023-11-18T09:35:07;101734.44;;;6.14;100.00
15272;BME280;7737;51.578;7.268;2023-11-18T09:37:35;101729.97;;;6.19;100.00
15272;BME280;7737;51.578;7.268;2023-11-18T09:40:02;101737.88;;;6.19;100.00
15272;BME280;7737;51.578;7.268;2023-11-18T09:42:36;101729.97;;;6.19;100.00
15272;BME280;7737;51.578;7.268;2023-11-18T09:45:05;101723.69;;;6.26;100.00
15272;BME280;7737;51.578;7.268;2023-11-18T09:47:43;101728.09;;;6.27;100.00
15272;BME280;7737;51.578;7.268;2023-11-18T09:50:13;101721.84;;;6.31;100.00
15272;BME280;7737;51.578;7.268;2023-11-18T09:52:48;101734.97;;;6.37;100.00
15272;BME280;7737;51.578;7.268;2023-11-18T09:55:23;101733.25;;;6.33;100.00
15272;BME280;7737;51.578;7.268;2023-11-18T09:57:58;101725.97;;;6.47;100.00
15272;BME280;7737;51.578;7.268;2023-11-18T10:00:30;101735.66;;;6.47;100.00
15272;BME280;7737;51.578;7.268;2023-11-18T10:03:00;101734.88;;;6.42;100.00
15272;BME280;7737;51.578;7.268;2023-11-18T10:05:28;101736.50;;;6.49;100.00
15272;BME280;7737;51.578;7.268;2023-11-18T10:07:55;101730.22;;;6.57;100.00
15272;BME280;7737;51.578;7.268;2023-11-18T10:10:24;101733.72;;;6.58;100.00
15272;BME280;7737;51.578;7.268;2023-11-18T10:12:56;101726.63;;;6.60;100.00
15272;BME280;7737;51.578;7.268;2023-11-18T10:15:24;101718.84;;;6.52;100.00
15272;BME280;7737;51.578;7.268;2023-11-18T10:17:52;101707.16;;;6.67;100.00
15272;BME280;7737;51.578;7.268;2023-11-18T10:20:43;101688.56;;;6.71;100.00
15272;BME280;7737;51.578;7.268;2023-11-18T10:23:11;101684.97;;;6.75;100.00
15272;BME280;7737;51.578;7.268;2023-11-18T10:25:45;101683.97;;;6.81;100.00
15272;BME280;7737;51.578;7.268;2023-11-18T10:28:26;101682.22;;;6.82;100.00
15272;BME280;7737;51.578;7.268;2023-11-18T10:30:53;101672.44;;;6.87;100.00
15272;BME280;7737;51.578;7.268;2023-11-18T10:33:23;101654.72;;;6.92;100.00
15272;BME280;7737;51.578;7.268;2023-11-18T10:35:57;101654.66;;;6.95;100.00
15272;BME280;7737;51.578;7.268;2023-11-18T10:38:29;101643.25;;;6.91;100.00
15272;BME280;7737;51.578;7.268;2023-11-18T10:40:57;101649.31;;;6.98;100.00
15272;BME280;7737;51.578;7.268;2023-11-18T10:43:24;101651.94;;;6.98;100.00
15272;BME280;7737;51.578;7.268;2023-11-18T10:46:04;101651.72;;;7.08;100.00
15272;BME280;7737;51.578;7.268;2023-11-18T10:48:38;101638.41;;;7.13;100.00
15272;BME280;7737;51.578;7.268;2023-11-18T10:51:09;101627.06;;;7.09;100.00
15272;BME280;7737;51.578;7.268;2023-11-18T10:53:38;101627.91;;;7.10;100.00
15272;BME280;7737;51.578;7.268;2023-11-18T10:56:16;101624.31;;;7.14;100.00
15272;BME280;7737;51.578;7.268;2023-11-18T10:58:44;101610.03;;;7.21;100.00
15272;BME280;7737;51.578;7.268;2023-11-18T11:01:11;101603.09;;;7.17;100.00
15272;BME280;7737;51.578;7.268;2023-11-18T11:03:52;101593.28;;;7.22;100.00
15272;BME280;7737;51.578;7.268;2023-11-18T11:06:23;101578.19;;;7.27;100.00
15272;BME280;7737;51.578;7.268;2023-11-18T11:08:50;101569.47;;;7.22;100.00
15272;BME280;7737;51.578;7.268;2023-11-18T11:11:19;101577.19;;;7.32;100.00
15272;BME280;7737;51.578;7.268;2023-11-18T11:13:47;101567.38;;;7.36;100.00
15272;BME280;7737;51.578;7.268;2023-11-18T11:16:18;101559.34;;;7.41;100.00
15272;BME280;7737;51.578;7.268;2023-11-18T11:18:48;101566.59;;;7.32;100.00
15272;BME280;7737;51.578;7.268;2023-11-18T11:21:24;101576.00;;;7.44;100.00
15272;BME280;7737;51.578;7.268;2023-11-18T11:23:55;101567.13;;;7.48;100.00
15272;BME280;7737;51.578;7.268;2023-11-18T11:26:39;101561.75;;;7.51;100.00
15272;BME280;7737;51.578;7.268;2023-11-18T11:29:24;101561.59;;;7.57;100.00
15272;BME280;7737;51.578;7.268;2023-11-18T11:32:00;101548.28;;;7.60;100.00
15272;BME280;7737;51.578;7.268;2023-11-18T11:34:29;101551.81;;;7.61;100.00
15272;BME280;7737;51.578;7.268;2023-11-18T11:36:59;101554.25;;;7.70;100.00
15272;BME280;7737;51.578;7.268;2023-11-18T11:39:26;101565.72;;;7.70;100.00
15272;BME280;7737;51.578;7.268;2023-11-18T11:41:55;101555.81;;;7.77;100.00
15272;BME280;7737;51.578;7.268;2023-11-18T11:44:24;101554.13;;;7.74;100.00
15272;BME280;7737;51.578;7.268;2023-11-18T11:46:54;101545.13;;;7.81;100.00
15272;BME280;7737;51.578;7.268;2023-11-18T11:49:26;101548.56;;;7.85;100.00
15272;BME280;7737;51.578;7.268;2023-11-18T11:52:01;101548.63;;;7.83;100.00
15272;BME280;7737;51.578;7.268;2023-11-18T11:54:35;101535.25;;;7.88;100.00
15272;BME280;7737;51.578;7.268;2023-11-18T11:57:04;101539.53;;;7.93;100.00
15272;BME280;7737;51.578;7.268;2023-11-18T11:59:55;101540.41;;;7.94;100.00
15272;BME280;7737;51.578;7.268;2023-11-18T12:02:23;101546.66;;;7.91;100.00
15272;BME280;7737;51.578;7.268;2023-11-18T12:04:53;101549.31;;;7.90;100.00
15272;BME280;7737;51.578;7.268;2023-11-18T12:07:25;101551.16;;;7.86;100.00
15272;BME280;7737;51.578;7.268;2023-11-18T12:09:55;101545.59;;;7.97;100.00
15272;BME280;7737;51.578;7.268;2023-11-18T12:12:23;101539.47;;;7.96;100.00
15272;BME280;7737;51.578;7.268;2023-11-18T12:14:52;101543.88;;;7.96;100.00
15272;BME280;7737;51.578;7.268;2023-11-18T12:17:21;101547.41;;;7.95;100.00
15272;BME280;7737;51.578;7.268;2023-11-18T12:19:49;101531.47;;;7.98;100.00
15272;BME280;7737;51.578;7.268;2023-11-18T12:22:25;101532.41;;;7.95;100.00
15272;BME280;7737;51.578;7.268;2023-11-18T12:27:57;101516.53;;;7.95;100.00
15272;BME280;7737;51.578;7.268;2023-11-18T12:30:39;101503.38;;;7.92;100.00
15272;BME280;7737;51.578;7.268;2023-11-18T12:33:17;101484.84;;;7.92;100.00
15272;BME280;7737;51.578;7.268;2023-11-18T12:36:03;101473.56;;;7.86;100.00
15272;BME280;7737;51.578;7.268;2023-11-18T12:39:10;101470.78;;;7.90;100.00
15272;BME280;7737;51.578;7.268;2023-11-18T12:41:42;101463.91;;;7.83;100.00
15272;BME280;7737;51.578;7.268;2023-11-18T12:44:15;101462.09;;;7.85;100.00
15272;BME280;7737;51.578;7.268;2023-11-18T12:46:48;101461.16;;;7.86;100.00
15272;BME280;7737;51.578;7.268;2023-11-18T12:49:15;101441.16;;;7.76;100.00
15272;BME280;7737;51.578;7.268;2023-11-18T12:51:42;101444.63;;;7.78;100.00
15272;BME280;7737;51.578;7.268;2023-11-18T12:54:11;101442.97;;;7.74;100.00
15272;BME280;7737;51.578;7.268;2023-11-18T12:56:38;101431.59;;;7.71;100.00
15272;BME280;7737;51.578;7.268;2023-11-18T12:59:09;101423.44;;;7.78;100.00
15272;BME280;7737;51.578;7.268;2023-11-18T13:01:38;101432.31;;;7.77;100.00
15272;BME280;7737;51.578;7.268;2023-11-18T13:04:07;101421.75;;;7.76;100.00
15272;BME280;7737;51.578;7.268;2023-11-18T13:06:34;101420.03;;;7.75;100.00
15272;BME280;7737;51.578;7.268;2023-11-18T13:09:00;101412.97;;;7.75;100.00
15272;BME280;7737;51.578;7.268;2023-11-18T13:11:33;101407.75;;;7.72;100.00